sensor_id;sensor_type;location;lat;lon;timestamp;P1;durP1;ratioP1;P2;durP2;ratioP2
49900;SDS011;35789;48.414;12.768;2023-10-13T00:00:00;17.5;;;7.7;;
49900;SDS011;35789;48.414;12.768;2023-10-13T00:05:00;17.5;;;7.7;;
49900;SDS011;35789;48.414;12.768;2023-10-13T00:10:00;17.5;;;7.7;;
49900;SDS011;35789;48.414;12.768;2023-10-13T00:15:00;14.0;;;7.7;;
49900;SDS011;35789;48.414;12.768;2023-10-13T00:20:00;14.0;;;7.7;;
49900;SDS011;35789;48.414;12.768;2023-10-13T00:25:00;14.0;;;7.7;;
49900;SDS011;35789;48.414;12.768;2023-10-13T00:30:02;14.0;;;7.7;;
49900;SDS011;35789;48.414;12.768;2023-10-13T00:35:00;14.0;;;7.7;;
49900;SDS011;35789;48.414;12.768;2023-10-13T00:40:00;14.0;;;7.7;;
49900;SDS011;35789;48.414;12.768;2023-10-13T00:45:00;16.0;;;8.2;;
49900;SDS011;35789;48.414;12.768;2023-10-13T00:50:00;16.0;;;8.2;;
49900;SDS011;35789;48.414;12.768;2023-10-13T00:55:00;16.0;;;8.2;;
49900;SDS011;35789;48.414;12.768;2023-10-13T01:00:00;16.0;;;8.2;;
49900;SDS011;35789;48.414;12.768;2023-10-13T01:05:00;16.0;;;8.2;;
49900;SDS011;35789;48.414;12.768;2023-10-13T01:10:00;16.0;;;8.2;;
49900;SDS011;35789;48.414;12.768;2023-10-13T01:15:01;12.0;;;6.8;;
49900;SDS011;35789;48.414;12.768;2023-10-13T01:20:00;12.0;;;6.8;;
49900;SDS011;35789;48.414;12.768;2023-10-13T01:25:00;12.0;;;6.8;;
49900;SDS011;35789;48.414;12.768;2023-10-13T01:30:00;12.0;;;6.8;;
49900;SDS011;35789;48.414;12.768;2023-10-13T01:35:00;12.0;;;6.8;;
49900;SDS011;35789;48.414;12.768;2023-10-13T01:40:00;12.0;;;6.8;;
49900;SDS011;35789;48.414;12.768;2023-10-13T01:45:00;13.0;;;5.9;;
49900;SDS011;35789;48.414;12.768;2023-10-13T01:50:00;13.0;;;5.9;;
49900;SDS011;35789;48.414;12.768;2023-10-13T01:55:00;13.0;;;5.9;;
49900;SDS011;35789;48.414;12.768;2023-10-13T02:00:00;13.0;;;5.9;;
49900;SDS011;35789;48.414;12.768;2023-10-13T02:05:00;13.0;;;5.9;;
49900;SDS011;35789;48.414;12.768;2023-10-13T02:10:00;13.0;;;5.9;;
49900;SDS011;35789;48.414;12.768;2023-10-13T02:15:00;11.3;;;5.5;;
49900;SDS011;35789;48.414;12.768;2023-10-13T02:20:00;11.3;;;5.5;;
49900;SDS011;35789;48.414;12.768;2023-10-13T02:25:00;11.3;;;5.5;;
49900;SDS011;35789;48.414;12.768;2023-10-13T02:30:00;11.3;;;5.5;;
49900;SDS011;35789;48.414;12.768;2023-10-13T02:35:00;11.3;;;5.5;;
49900;SDS011;35789;48.414;12.768;2023-10-13T02:40:00;11.3;;;5.5;;
49900;SDS011;35789;48.414;12.768;2023-10-13T02:45:00;9.8;;;4.8;;
49900;SDS011;35789;48.414;12.768;2023-10-13T02:50:00;9.8;;;4.8;;
49900;SDS011;35789;48.414;12.768;2023-10-13T02:55:00;9.8;;;4.8;;
49900;SDS011;35789;48.414;12.768;2023-10-13T03:00:00;9.8;;;4.8;;
49900;SDS011;35789;48.414;12.768;2023-10-13T03:05:00;9.8;;;4.8;;
49900;SDS011;35789;48.414;12.768;2023-10-13T03:10:00;9.8;;;4.8;;
49900;SDS011;35789;48.414;12.768;2023-10-13T03:15:00;11.5;;;5.0;;
49900;SDS011;35789;48.414;12.768;2023-10-13T03:20:00;11.5;;;5.0;;
49900;SDS011;35789;48.414;12.768;2023-10-13T03:25:00;11.5;;;5.0;;
49900;SDS011;35789;48.414;12.768;2023-10-13T03:30:00;11.5;;;5.0;;
49900;SDS011;35789;48.414;12.768;2023-10-13T03:35:00;11.5;;;5.0;;
49900;SDS011;35789;48.414;12.768;2023-10-13T03:40:00;10.0;;;4.9;;
49900;SDS011;35789;48.414;12.768;2023-10-13T03:45:00;10.0;;;4.9;;
49900;SDS011;35789;48.414;12.768;2023-10-13T03:50:00;10.0;;;4.9;;
49900;SDS011;35789;48.414;12.768;2023-10-13T03:55:00;10.0;;;4.9;;
49900;SDS011;35789;48.414;12.768;2023-10-13T04:00:00;10.0;;;4.9;;
49900;SDS011;35789;48.414;12.768;2023-10-13T04:05:00;10.0;;;4.9;;
49900;SDS011;35789;48.414;12.768;2023-10-13T04:10:00;9.4;;;4.7;;
49900;SDS011;35789;48.414;12.768;2023-10-13T04:15:00;9.4;;;4.7;;
49900;SDS011;35789;48.414;12.768;2023-10-13T04:20:00;9.4;;;4.7;;
49900;SDS011;35789;48.414;12.768;2023-10-13T04:25:00;9.4;;;4.7;;
49900;SDS011;35789;48.414;12.768;2023-10-13T04:30:00;9.4;;;4.7;;
49900;SDS011;35789;48.414;12.768;2023-10-13T04:35:01;9.4;;;4.7;;
49900;SDS011;35789;48.414;12.768;2023-10-13T04:40:00;12.1;;;5.1;;
49900;SDS011;35789;48.414;12.768;2023-10-13T04:45:00;12.1;;;5.1;;
49900;SDS011;35789;48.414;12.768;2023-10-13T04:50:01;12.1;;;5.1;;
49900;SDS011;35789;48.414;12.768;2023-10-13T04:55:01;12.1;;;5.1;;
49900;SDS011;35789;48.414;12.768;2023-10-13T05:00:04;12.1;;;5.1;;
49900;SDS011;35789;48.414;12.768;2023-10-13T05:05:00;12.1;;;5.1;;
49900;SDS011;35789;48.414;12.768;2023-10-13T05:10:00;14.7;;;6.6;;
49900;SDS011;35789;48.414;12.768;2023-10-13T05:15:00;14.7;;;6.6;;
49900;SDS011;35789;48.414;12.768;2023-10-13T05:20:00;14.7;;;6.6;;
49900;SDS011;35789;48.414;12.768;2023-10-13T05:25:00;14.7;;;6.6;;
49900;SDS011;35789;48.414;12.768;2023-10-13T05:30:00;14.7;;;6.6;;
49900;SDS011;35789;48.414;12.768;2023-10-13T05:35:00;14.7;;;6.6;;
49900;SDS011;35789;48.414;12.768;2023-10-13T05:40:00;8.6;;;4.6;;
49900;SDS011;35789;48.414;12.768;2023-10-13T05:45:00;8.6;;;4.6;;
49900;SDS011;35789;48.414;12.768;2023-10-13T05:50:00;8.6;;;4.6;;
49900;SDS011;35789;48.414;12.768;2023-10-13T05:55:00;8.6;;;4.6;;
49900;SDS011;35789;48.414;12.768;2023-10-13T06:00:00;8.6;;;4.6;;
49900;SDS011;35789;48.414;12.768;2023-10-13T06:05:01;8.6;;;4.6;;
49900;SDS011;35789;48.414;12.768;2023-10-13T06:10:00;12.2;;;4.8;;
49900;SDS011;35789;48.414;12.768;2023-10-13T06:15:00;12.2;;;4.8;;
49900;SDS011;35789;48.414;12.768;2023-10-13T06:20:00;12.2;;;4.8;;
49900;SDS011;35789;48.414;12.768;2023-10-13T06:25:00;12.2;;;4.8;;
49900;SDS011;35789;48.414;12.768;2023-10-13T06:30:00;12.2;;;4.8;;
49900;SDS011;35789;48.414;12.768;2023-10-13T06:35:02;12.2;;;4.8;;
49900;SDS011;35789;48.414;12.768;2023-10-13T06:40:03;13.3;;;6.5;;
49900;SDS011;35789;48.414;12.768;2023-10-13T06:45:00;13.3;;;6.5;;
49900;SDS011;35789;48.414;12.768;2023-10-13T06:50:00;13.3;;;6.5;;
49900;SDS011;35789;48.414;12.768;2023-10-13T06:55:00;13.3;;;6.5;;
49900;SDS011;35789;48.414;12.768;2023-10-13T07:00:00;13.3;;;6.5;;
49900;SDS011;35789;48.414;12.768;2023-10-13T07:05:00;13.3;;;6.5;;
49900;SDS011;35789;48.414;12.768;2023-10-13T07:10:00;13.0;;;6.8;;
49900;SDS011;35789;48.414;12.768;2023-10-13T07:15:00;13.0;;;6.8;;
49900;SDS011;35789;48.414;12.768;2023-10-13T07:20:00;13.0;;;6.8;;
49900;SDS011;35789;48.414;12.768;2023-10-13T07:25:00;13.0;;;6.8;;
49900;SDS011;35789;48.414;12.768;2023-10-13T07:30:01;13.0;;;6.8;;
49900;SDS011;35789;48.414;12.768;2023-10-13T07:35:00;13.0;;;6.8;;
49900;SDS011;35789;48.414;12.768;2023-10-13T07:40:00;12.3;;;5.4;;
49900;SDS011;35789;48.414;12.768;2023-10-13T07:45:00;12.3;;;5.4;;
49900;SDS011;35789;48.414;12.768;2023-10-13T07:50:00;12.3;;;5.4;;
49900;SDS011;35789;48.414;12.768;2023-10-13T07:55:00;12.3;;;5.4;;
49900;SDS011;35789;48.414;12.768;2023-10-13T08:00:00;12.3;;;5.4;;
49900;SDS011;35789;48.414;12.768;2023-10-13T08:05:00;12.3;;;5.4;;
49900;SDS011;35789;48.414;12.768;2023-10-13T08:10:00;14.9;;;5.4;;
49900;SDS011;35789;48.414;12.768;2023-10-13T08:15:00;14.9;;;5.4;;
49900;SDS011;35789;48.414;12.768;2023-10-13T08:20:00;14.9;;;5.4;;
49900;SDS011;35789;48.414;12.768;2023-10-13T08:25:00;14.9;;;5.4;;
49900;SDS011;35789;48.414;12.768;2023-10-13T08:30:01;14.9;;;5.4;;
49900;SDS011;35789;48.414;12.768;2023-10-13T08:50:00;12.3;;;4.5;;
49900;SDS011;35789;48.414;12.768;2023-10-13T08:55:00;12.3;;;4.5;;
49900;SDS011;35789;48.414;12.768;2023-10-13T09:00:00;12.3;;;4.5;;
49900;SDS011;35789;48.414;12.768;2023-10-13T09:05:01;12.3;;;4.5;;
49900;SDS011;35789;48.414;12.768;2023-10-13T09:10:00;12.6;;;4.5;;
49900;SDS011;35789;48.414;12.768;2023-10-13T09:15:01;12.6;;;4.5;;
49900;SDS011;35789;48.414;12.768;2023-10-13T09:20:01;12.6;;;4.5;;
49900;SDS011;35789;48.414;12.768;2023-10-13T09:25:01;12.6;;;4.5;;
49900;SDS011;35789;48.414;12.768;2023-10-13T09:30:01;12.6;;;4.5;;
49900;SDS011;35789;48.414;12.768;2023-10-13T09:35:01;12.6;;;4.5;;
49900;SDS011;35789;48.414;12.768;2023-10-13T09:40:01;14.5;;;4.6;;
49900;SDS011;35789;48.414;12.768;2023-10-13T09:45:01;14.5;;;4.6;;
49900;SDS011;35789;48.414;12.768;2023-10-13T09:50:00;14.5;;;4.6;;
49900;SDS011;35789;48.414;12.768;2023-10-13T09:55:09;14.5;;;4.6;;
49900;SDS011;35789;48.414;12.768;2023-10-13T10:00:08;14.5;;;4.6;;
49900;SDS011;35789;48.414;12.768;2023-10-13T10:05:00;14.5;;;4.6;;
49900;SDS011;35789;48.414;12.768;2023-10-13T10:10:01;13.7;;;4.3;;
49900;SDS011;35789;48.414;12.768;2023-10-13T10:15:06;13.7;;;4.3;;
49900;SDS011;35789;48.414;12.768;2023-10-13T10:20:00;13.7;;;4.3;;
49900;SDS011;35789;48.414;12.768;2023-10-13T10:25:01;13.7;;;4.3;;
49900;SDS011;35789;48.414;12.768;2023-10-13T10:30:00;13.7;;;4.3;;
49900;SDS011;35789;48.414;12.768;2023-10-13T10:35:04;13.7;;;4.3;;
49900;SDS011;35789;48.414;12.768;2023-10-13T10:40:00;9.2;;;3.3;;
49900;SDS011;35789;48.414;12.768;2023-10-13T10:45:00;9.2;;;3.3;;
49900;SDS011;35789;48.414;12.768;2023-10-13T10:50:00;9.2;;;3.3;;
49900;SDS011;35789;48.414;12.768;2023-10-13T10:55:00;9.2;;;3.3;;
49900;SDS011;35789;48.414;12.768;2023-10-13T11:00:00;9.2;;;3.3;;
49900;SDS011;35789;48.414;12.768;2023-10-13T11:05:00;9.2;;;3.3;;
49900;SDS011;35789;48.414;12.768;2023-10-13T11:10:06;11.1;;;3.3;;
49900;SDS011;35789;48.414;12.768;2023-10-13T11:15:03;11.1;;;3.3;;
49900;SDS011;35789;48.414;12.768;2023-10-13T11:20:07;11.1;;;3.3;;
49900;SDS011;35789;48.414;12.768;2023-10-13T11:25:01;11.1;;;3.3;;
49900;SDS011;35789;48.414;12.768;2023-10-13T11:30:01;11.1;;;3.3;;
49900;SDS011;35789;48.414;12.768;2023-10-13T11:35:00;11.1;;;3.3;;
49900;SDS011;35789;48.414;12.768;2023-10-13T11:40:00;8.8;;;3.0;;
49900;SDS011;35789;48.414;12.768;2023-10-13T11:45:00;8.8;;;3.0;;
49900;SDS011;35789;48.414;12.768;2023-10-13T11:50:00;8.8;;;3.0;;
49900;SDS011;35789;48.414;12.768;2023-10-13T11:55:00;8.8;;;3.0;;
49900;SDS011;35789;48.414;12.768;2023-10-13T12:00:00;8.8;;;3.0;;
49900;SDS011;35789;48.414;12.768;2023-10-13T12:05:00;8.8;;;3.0;;
49900;SDS011;35789;48.414;12.768;2023-10-13T12:10:00;12.3;;;3.5;;
49900;SDS011;35789;48.414;12.768;2023-10-13T12:15:01;12.3;;;3.5;;
49900;SDS011;35789;48.414;12.768;2023-10-13T12:20:01;12.3;;;3.5;;
49900;SDS011;35789;48.414;12.768;2023-10-13T12:25:00;12.3;;;3.5;;
49900;SDS011;35789;48.414;12.768;2023-10-13T12:30:01;12.3;;;3.5;;
49900;SDS011;35789;48.414;12.768;2023-10-13T12:35:00;12.3;;;3.5;;
49900;SDS011;35789;48.414;12.768;2023-10-13T12:40:00;8.4;;;2.8;;
49900;SDS011;35789;48.414;12.768;2023-10-13T12:45:00;8.4;;;2.8;;
49900;SDS011;35789;48.414;12.768;2023-10-13T12:50:00;8.4;;;2.8;;
49900;SDS011;35789;48.414;12.768;2023-10-13T12:55:00;8.4;;;2.8;;
49900;SDS011;35789;48.414;12.768;2023-10-13T13:00:00;8.4;;;2.8;;
49900;SDS011;35789;48.414;12.768;2023-10-13T13:05:00;8.4;;;2.8;;
49900;SDS011;35789;48.414;12.768;2023-10-13T13:10:00;10.1;;;3.1;;
49900;SDS011;35789;48.414;12.768;2023-10-13T13:15:00;10.1;;;3.1;;
49900;SDS011;35789;48.414;12.768;2023-10-13T13:20:00;10.1;;;3.1;;
49900;SDS011;35789;48.414;12.768;2023-10-13T13:25:00;10.1;;;3.1;;
49900;SDS011;35789;48.414;12.768;2023-10-13T13:30:00;10.1;;;3.1;;
49900;SDS011;35789;48.414;12.768;2023-10-13T13:35:00;10.1;;;3.1;;
49900;SDS011;35789;48.414;12.768;2023-10-13T13:40:03;8.6;;;2.9;;
49900;SDS011;35789;48.414;12.768;2023-10-13T13:45:00;8.6;;;2.9;;
49900;SDS011;35789;48.414;12.768;2023-10-13T13:50:00;8.6;;;2.9;;
49900;SDS011;35789;48.414;12.768;2023-10-13T13:55:00;8.6;;;2.9;;
49900;SDS011;35789;48.414;12.768;2023-10-13T14:00:00;8.6;;;2.9;;
49900;SDS011;35789;48.414;12.768;2023-10-13T14:05:00;8.6;;;2.9;;
49900;SDS011;35789;48.414;12.768;2023-10-13T14:10:00;9.7;;;2.9;;
49900;SDS011;35789;48.414;12.768;2023-10-13T14:15:00;9.7;;;2.9;;
49900;SDS011;35789;48.414;12.768;2023-10-13T14:20:00;9.7;;;2.9;;
49900;SDS011;35789;48.414;12.768;2023-10-13T14:25:00;9.7;;;2.9;;
49900;SDS011;35789;48.414;12.768;2023-10-13T14:30:00;9.7;;;2.9;;
49900;SDS011;35789;48.414;12.768;2023-10-13T14:35:00;9.7;;;2.9;;
49900;SDS011;35789;48.414;12.768;2023-10-13T14:40:00;8.5;;;2.9;;
49900;SDS011;35789;48.414;12.768;2023-10-13T14:45:00;8.5;;;2.9;;
49900;SDS011;35789;48.414;12.768;2023-10-13T14:50:00;8.5;;;2.9;;
49900;SDS011;35789;48.414;12.768;2023-10-13T14:55:00;8.5;;;2.9;;
49900;SDS011;35789;48.414;12.768;2023-10-13T15:00:01;8.5;;;2.9;;
49900;SDS011;35789;48.414;12.768;2023-10-13T15:05:00;8.5;;;2.9;;
49900;SDS011;35789;48.414;12.768;2023-10-13T15:10:00;11.1;;;3.1;;
49900;SDS011;35789;48.414;12.768;2023-10-13T15:15:00;11.1;;;3.1;;
49900;SDS011;35789;48.414;12.768;2023-10-13T15:20:00;11.1;;;3.1;;
49900;SDS011;35789;48.414;12.768;2023-10-13T15:25:00;11.1;;;3.1;;
49900;SDS011;35789;48.414;12.768;2023-10-13T15:30:00;11.1;;;3.1;;
49900;SDS011;35789;48.414;12.768;2023-10-13T15:35:00;11.1;;;3.1;;
49900;SDS011;35789;48.414;12.768;2023-10-13T15:40:00;14.0;;;3.3;;
49900;SDS011;35789;48.414;12.768;2023-10-13T15:45:02;14.0;;;3.3;;
49900;SDS011;35789;48.414;12.768;2023-10-13T15:50:00;14.0;;;3.3;;
49900;SDS011;35789;48.414;12.768;2023-10-13T15:55:00;14.0;;;3.3;;
49900;SDS011;35789;48.414;12.768;2023-10-13T16:00:00;14.0;;;3.3;;
49900;SDS011;35789;48.414;12.768;2023-10-13T16:05:00;14.0;;;3.3;;
49900;SDS011;35789;48.414;12.768;2023-10-13T16:10:00;8.9;;;3.0;;
49900;SDS011;35789;48.414;12.768;2023-10-13T16:15:00;8.9;;;3.0;;
49900;SDS011;35789;48.414;12.768;2023-10-13T16:20:00;8.9;;;3.0;;
49900;SDS011;35789;48.414;12.768;2023-10-13T16:25:00;8.9;;;3.0;;
49900;SDS011;35789;48.414;12.768;2023-10-13T16:30:00;8.9;;;3.0;;
49900;SDS011;35789;48.414;12.768;2023-10-13T16:35:00;8.9;;;3.0;;
49900;SDS011;35789;48.414;12.768;2023-10-13T16:40:00;14.1;;;3.9;;
49900;SDS011;35789;48.414;12.768;2023-10-13T16:45:00;14.1;;;3.9;;
49900;SDS011;35789;48.414;12.768;2023-10-13T16:50:00;14.1;;;3.9;;
49900;SDS011;35789;48.414;12.768;2023-10-13T16:55:00;14.1;;;3.9;;
49900;SDS011;35789;48.414;12.768;2023-10-13T17:00:00;14.1;;;3.9;;
49900;SDS011;35789;48.414;12.768;2023-10-13T17:05:00;14.1;;;3.9;;
49900;SDS011;35789;48.414;12.768;2023-10-13T17:10:00;12.0;;;3.6;;
49900;SDS011;35789;48.414;12.768;2023-10-13T17:15:00;12.0;;;3.6;;
49900;SDS011;35789;48.414;12.768;2023-10-13T17:20:00;12.0;;;3.6;;
49900;SDS011;35789;48.414;12.768;2023-10-13T17:25:00;12.0;;;3.6;;
49900;SDS011;35789;48.414;12.768;2023-10-13T17:30:00;12.0;;;3.6;;
49900;SDS011;35789;48.414;12.768;2023-10-13T17:35:00;12.0;;;3.6;;
49900;SDS011;35789;48.414;12.768;2023-10-13T17:40:00;11.0;;;4.7;;
49900;SDS011;35789;48.414;12.768;2023-10-13T17:45:00;11.0;;;4.7;;
49900;SDS011;35789;48.414;12.768;2023-10-13T17:50:00;11.0;;;4.7;;
49900;SDS011;35789;48.414;12.768;2023-10-13T17:55:00;11.0;;;4.7;;
49900;SDS011;35789;48.414;12.768;2023-10-13T18:00:00;11.0;;;4.7;;
49900;SDS011;35789;48.414;12.768;2023-10-13T18:05:00;11.0;;;4.7;;
49900;SDS011;35789;48.414;12.768;2023-10-13T18:10:01;12.7;;;4.5;;
49900;SDS011;35789;48.414;12.768;2023-10-13T18:15:00;12.7;;;4.5;;
49900;SDS011;35789;48.414;12.768;2023-10-13T18:25:00;12.7;;;4.5;;
49900;SDS011;35789;48.414;12.768;2023-10-13T18:35:00;12.7;;;4.5;;
49900;SDS011;35789;48.414;12.768;2023-10-13T18:40:00;12.4;;;4.3;;
49900;SDS011;35789;48.414;12.768;2023-10-13T18:45:00;12.4;;;4.3;;
49900;SDS011;35789;48.414;12.768;2023-10-13T18:50:00;12.4;;;4.3;;
49900;SDS011;35789;48.414;12.768;2023-10-13T18:55:00;12.4;;;4.3;;
49900;SDS011;35789;48.414;12.768;2023-10-13T19:00:00;12.4;;;4.3;;
49900;SDS011;35789;48.414;12.768;2023-10-13T19:05:00;12.4;;;4.3;;
49900;SDS011;35789;48.414;12.768;2023-10-13T19:10:00;17.9;;;5.0;;
49900;SDS011;35789;48.414;12.768;2023-10-13T19:15:00;17.9;;;5.0;;
49900;SDS011;35789;48.414;12.768;2023-10-13T19:20:00;17.9;;;5.0;;
49900;SDS011;35789;48.414;12.768;2023-10-13T19:25:00;17.9;;;5.0;;
49900;SDS011;35789;48.414;12.768;2023-10-13T19:30:00;17.9;;;5.0;;
49900;SDS011;35789;48.414;12.768;2023-10-13T19:35:00;17.9;;;5.0;;
49900;SDS011;35789;48.414;12.768;2023-10-13T19:40:00;12.0;;;4.5;;
49900;SDS011;35789;48.414;12.768;2023-10-13T19:45:00;12.0;;;4.5;;
49900;SDS011;35789;48.414;12.768;2023-10-13T19:50:00;12.0;;;4.5;;
49900;SDS011;35789;48.414;12.768;2023-10-13T19:55:00;12.0;;;4.5;;
49900;SDS011;35789;48.414;12.768;2023-10-13T20:00:00;12.0;;;4.5;;
49900;SDS011;35789;48.414;12.768;2023-10-13T20:05:00;12.0;;;4.5;;
49900;SDS011;35789;48.414;12.768;2023-10-13T20:10:00;17.7;;;5.8;;
49900;SDS011;35789;48.414;12.768;2023-10-13T20:15:00;17.7;;;5.8;;
49900;SDS011;35789;48.414;12.768;2023-10-13T20:20:00;17.7;;;5.8;;
49900;SDS011;35789;48.414;12.768;2023-10-13T20:25:00;17.7;;;5.8;;
49900;SDS011;35789;48.414;12.768;2023-10-13T20:30:01;17.7;;;5.8;;
49900;SDS011;35789;48.414;12.768;2023-10-13T20:35:00;17.7;;;5.8;;
49900;SDS011;35789;48.414;12.768;2023-10-13T20:40:01;11.0;;;4.5;;
49900;SDS011;35789;48.414;12.768;2023-10-13T20:45:00;11.0;;;4.5;;
49900;SDS011;35789;48.414;12.768;2023-10-13T20:50:00;11.0;;;4.5;;
49900;SDS011;35789;48.414;12.768;2023-10-13T20:55:00;11.0;;;4.5;;
49900;SDS011;35789;48.414;12.768;2023-10-13T21:00:01;11.0;;;4.5;;
49900;SDS011;35789;48.414;12.768;2023-10-13T21:05:00;11.0;;;4.5;;
49900;SDS011;35789;48.414;12.768;2023-10-13T21:10:00;12.4;;;5.0;;
49900;SDS011;35789;48.414;12.768;2023-10-13T21:15:00;12.4;;;5.0;;
49900;SDS011;35789;48.414;12.768;2023-10-13T21:20:00;12.4;;;5.0;;
49900;SDS011;35789;48.414;12.768;2023-10-13T21:25:00;12.4;;;5.0;;
49900;SDS011;35789;48.414;12.768;2023-10-13T21:30:00;12.4;;;5.0;;
49900;SDS011;35789;48.414;12.768;2023-10-13T21:35:00;12.4;;;5.0;;
49900;SDS011;35789;48.414;12.768;2023-10-13T21:40:00;14.2;;;5.4;;
49900;SDS011;35789;48.414;12.768;2023-10-13T21:45:00;14.2;;;5.4;;
49900;SDS011;35789;48.414;12.768;2023-10-13T21:50:00;14.2;;;5.4;;
49900;SDS011;35789;48.414;12.768;2023-10-13T21:55:00;14.2;;;5.4;;
49900;SDS011;35789;48.414;12.768;2023-10-13T22:00:00;14.2;;;5.4;;
49900;SDS011;35789;48.414;12.768;2023-10-13T22:05:00;14.2;;;5.4;;
49900;SDS011;35789;48.414;12.768;2023-10-13T22:10:00;15.2;;;5.1;;
49900;SDS011;35789;48.414;12.768;2023-10-13T22:15:00;15.2;;;5.1;;
49900;SDS011;35789;48.414;12.768;2023-10-13T22:20:00;15.2;;;5.1;;
49900;SDS011;35789;48.414;12.768;2023-10-13T22:25:00;15.2;;;5.1;;
49900;SDS011;35789;48.414;12.768;2023-10-13T22:30:00;15.2;;;5.1;;
49900;SDS011;35789;48.414;12.768;2023-10-13T22:35:00;15.2;;;5.1;;
49900;SDS011;35789;48.414;12.768;2023-10-13T22:40:00;13.7;;;5.2;;
49900;SDS011;35789;48.414;12.768;2023-10-13T22:45:00;13.7;;;5.2;;
49900;SDS011;35789;48.414;12.768;2023-10-13T22:50:00;13.7;;;5.2;;
49900;SDS011;35789;48.414;12.768;2023-10-13T22:55:00;13.7;;;5.2;;
49900;SDS011;35789;48.414;12.768;2023-10-13T23:00:00;13.7;;;5.2;;
49900;SDS011;35789;48.414;12.768;2023-10-13T23:05:00;13.7;;;5.2;;
49900;SDS011;35789;48.414;12.768;2023-10-13T23:10:00;15.1;;;6.0;;
49900;SDS011;35789;48.414;12.768;2023-10-13T23:15:00;15.1;;;6.0;;
49900;SDS011;35789;48.414;12.768;2023-10-13T23:20:00;15.1;;;6.0;;
49900;SDS011;35789;48.414;12.768;2023-10-13T23:25:00;15.1;;;6.0;;
49900;SDS011;35789;48.414;12.768;2023-10-13T23:30:00;15.1;;;6.0;;
49900;SDS011;35789;48.414;12.768;2023-10-13T23:35:00;15.1;;;6.0;;
49900;SDS011;35789;48.414;12.768;2023-10-13T23:40:00;15.5;;;5.6;;
49900;SDS011;35789;48.414;12.768;2023-10-13T23:45:00;15.5;;;5.6;;
49900;SDS011;35789;48.414;12.768;2023-10-13T23:50:00;15.5;;;5.6;;
49900;SDS011;35789;48.414;12.768;2023-10-13T23:55:00;15.5;;;5.6;;
